createdAt,value
2019-03-23T00:01:10.035Z,54.37
2019-03-23T00:06:05.739Z,49.03
2019-03-23T00:11:10.948Z,48.00
2019-03-23T00:16:08.475Z,48.53
2019-03-23T00:21:08.983Z,54.50
2019-03-23T00:26:08.727Z,48.17
2019-03-23T00:31:08.295Z,48.93
2019-03-23T00:36:09.747Z,51.27
2019-03-23T00:41:13.317Z,45.43
2019-03-23T00:46:09.109Z,55.10
2019-03-23T00:51:07.188Z,48.77
2019-03-23T00:56:05.743Z,48.93
2019-03-23T01:01:11.518Z,47.77
2019-03-23T01:06:07.286Z,50.03
2019-03-23T01:11:05.614Z,45.10
2019-03-23T01:16:03.918Z,46.30
2019-03-23T01:21:05.651Z,52.37
2019-03-23T01:26:05.555Z,45.93
2019-03-23T01:31:07.317Z,47.23
2019-03-23T01:36:05.986Z,45.60
2019-03-23T01:41:05.095Z,48.77
2019-03-23T01:46:00.389Z,49.93
2019-03-23T01:51:15.141Z,45.10
2019-03-23T01:55:59.172Z,43.07
2019-03-23T02:00:53.369Z,47.87
2019-03-23T02:05:53.867Z,47.97
2019-03-23T02:10:48.876Z,49.07
2019-03-23T02:15:46.197Z,40.00
2019-03-23T02:20:44.065Z,45.87
2019-03-23T02:25:43.576Z,43.20
2019-03-23T02:30:41.634Z,44.40
2019-03-23T02:35:36.473Z,42.93
2019-03-23T02:40:33.335Z,41.60
2019-03-23T02:45:30.308Z,48.60
2019-03-23T02:50:26.082Z,43.97
2019-03-23T02:55:27.505Z,51.40
2019-03-23T03:00:27.395Z,46.87
2019-03-23T03:05:24.241Z,41.17
2019-03-23T03:10:41.581Z,39.73
2019-03-23T03:15:36.806Z,46.13
2019-03-23T03:20:31.728Z,45.17
2019-03-23T03:25:28.971Z,41.63
2019-03-23T03:30:24.476Z,43.47
2019-03-23T03:35:18.850Z,44.13
2019-03-23T03:40:18.212Z,41.93
2019-03-23T03:45:15.039Z,41.50
2019-03-23T03:50:10.970Z,40.33
2019-03-23T03:55:08.286Z,52.37
2019-03-23T04:00:07.230Z,39.77
2019-03-23T04:05:02.379Z,45.87
2019-03-23T04:09:57.470Z,48.27
2019-03-23T04:14:52.773Z,42.10
2019-03-23T04:19:47.141Z,40.43
2019-03-23T04:24:44.382Z,42.60
2019-03-23T04:29:39.890Z,45.70
2019-03-23T04:34:36.429Z,43.70
2019-03-23T04:39:35.563Z,44.23
2019-03-23T04:44:30.843Z,48.80
2019-03-23T04:49:26.771Z,48.30
2019-03-23T04:54:21.500Z,47.97
2019-03-23T04:59:16.346Z,51.57
2019-03-23T05:04:15.364Z,46.63
2019-03-23T05:09:10.883Z,40.90
2019-03-23T05:14:09.170Z,41.87
2019-03-23T05:19:04.247Z,37.50
2019-03-23T05:24:01.003Z,39.83
2019-03-23T05:28:56.340Z,40.80
2019-03-23T05:33:53.963Z,46.47
2019-03-23T05:38:52.626Z,39.27
2019-03-23T05:43:50.024Z,44.23
2019-03-23T05:48:44.196Z,41.50
2019-03-23T05:53:43.686Z,38.60
2019-03-23T05:58:46.980Z,37.13
2019-03-23T06:03:48.247Z,29.07
2019-03-23T06:08:41.847Z,29.73
2019-03-23T06:13:37.556Z,29.20
2019-03-23T06:18:32.661Z,25.97
2019-03-23T06:23:31.232Z,27.60
2019-03-23T06:28:26.701Z,26.77
2019-03-23T06:33:21.359Z,24.93
2019-03-23T06:38:19.938Z,25.70
2019-03-23T06:43:16.543Z,22.90
2019-03-23T06:48:13.633Z,24.47
2019-03-23T06:53:15.673Z,25.27
2019-03-23T06:58:11.220Z,25.43
2019-03-23T07:03:07.931Z,24.43
2019-03-23T07:08:05.987Z,24.00
2019-03-23T07:13:00.401Z,43.63
2019-03-23T07:18:01.946Z,22.27
2019-03-23T07:22:55.481Z,34.70
2019-03-23T07:27:49.857Z,25.57
2019-03-23T07:32:51.551Z,26.17
2019-03-23T07:37:47.636Z,30.20
2019-03-23T07:42:47.672Z,23.13
2019-03-23T07:47:48.558Z,21.33
2019-03-23T07:52:51.092Z,21.87
2019-03-23T07:57:45.459Z,29.40
2019-03-23T08:02:40.578Z,30.43
2019-03-23T08:07:36.863Z,25.43
2019-03-23T08:12:31.327Z,21.27
2019-03-23T08:17:30.856Z,24.57
2019-03-23T08:22:25.256Z,24.50
2019-03-23T08:27:20.413Z,21.27
2019-03-23T08:32:21.397Z,17.97
2019-03-23T08:37:15.078Z,19.37
2019-03-23T08:42:26.408Z,17.55
2019-03-23T08:47:21.632Z,21.97
2019-03-23T08:52:18.824Z,21.00
2019-03-23T08:57:13.797Z,16.43
2019-03-23T09:02:09.056Z,20.17
2019-03-23T09:07:10.213Z,17.67
2019-03-23T09:12:06.405Z,16.30
2019-03-23T09:17:08.041Z,16.77
2019-03-23T09:22:02.760Z,15.13
2019-03-23T09:26:58.086Z,12.20
2019-03-23T09:31:54.597Z,11.90
2019-03-23T09:36:49.894Z,10.58
2019-03-23T09:41:48.471Z,8.03
2019-03-23T09:46:44.443Z,9.65
2019-03-23T09:51:39.081Z,7.33
2019-03-23T09:56:38.392Z,8.68
2019-03-23T10:01:37.388Z,5.87
2019-03-23T10:06:35.208Z,5.58
2019-03-23T10:11:30.924Z,5.62
2019-03-23T10:16:27.355Z,6.25
2019-03-23T10:21:25.300Z,5.58
2019-03-23T10:26:23.147Z,4.62
2019-03-23T10:31:19.237Z,4.87
2019-03-23T10:36:16.768Z,4.95
2019-03-23T10:41:14.215Z,4.65
2019-03-23T10:46:09.216Z,5.00
2019-03-23T10:51:06.498Z,5.40
2019-03-23T10:56:04.736Z,5.95
2019-03-23T11:01:03.427Z,6.08
2019-03-23T11:06:00.164Z,6.58
2019-03-23T11:10:56.492Z,5.35
2019-03-23T11:15:52.092Z,12.43
2019-03-23T11:20:49.579Z,6.35
2019-03-23T11:25:44.624Z,6.40
2019-03-23T11:30:42.982Z,8.40
2019-03-23T11:35:42.230Z,7.58
2019-03-23T11:40:41.246Z,12.90
2019-03-23T11:45:47.882Z,10.00
2019-03-23T11:50:42.759Z,9.93
2019-03-23T11:55:38.065Z,13.03
2019-03-23T12:00:35.677Z,12.43
2019-03-23T12:05:31.703Z,13.50
2019-03-23T12:10:28.730Z,13.13
2019-03-23T12:15:34.024Z,11.10
2019-03-23T12:20:26.578Z,11.83
2019-03-23T12:25:23.604Z,18.10
2019-03-23T12:30:21.299Z,12.77
2019-03-23T12:35:17.235Z,11.33
2019-03-23T12:40:16.422Z,11.00
2019-03-23T12:45:12.414Z,13.43
2019-03-23T12:50:11.731Z,9.87
2019-03-23T12:55:11.056Z,10.47
2019-03-23T13:00:15.442Z,10.90
2019-03-23T13:05:12.439Z,10.50
2019-03-23T13:10:12.078Z,9.30
2019-03-23T13:15:09.352Z,10.57
2019-03-23T13:20:08.815Z,11.33
2019-03-23T13:25:08.929Z,13.53
2019-03-23T13:30:06.480Z,13.70
2019-03-23T13:35:14.101Z,15.40
2019-03-23T13:40:12.283Z,12.17
2019-03-23T13:45:09.402Z,10.77
2019-03-23T13:50:04.988Z,11.37
2019-03-23T13:55:04.357Z,12.23
2019-03-23T14:00:00.281Z,14.10
2019-03-23T14:04:55.592Z,11.77
2019-03-23T14:09:57.926Z,11.20
2019-03-23T14:14:51.913Z,12.53
2019-03-23T14:19:49.103Z,13.87
2019-03-23T14:24:51.695Z,12.40
2019-03-23T14:29:48.724Z,14.27
2019-03-23T14:34:47.266Z,13.87
2019-03-23T14:39:47.442Z,13.53
2019-03-23T14:44:43.873Z,11.63
2019-03-23T14:49:51.433Z,16.37
2019-03-23T14:54:48.889Z,13.73
2019-03-23T14:59:49.431Z,18.00
2019-03-23T15:04:51.505Z,15.47
2019-03-23T15:09:47.091Z,14.27
2019-03-23T15:14:47.073Z,15.60
2019-03-23T15:19:48.839Z,16.40
2019-03-23T15:24:44.653Z,15.47
2019-03-23T15:29:42.549Z,18.67
2019-03-23T15:34:40.824Z,21.07
2019-03-23T15:39:37.630Z,17.73
2019-03-23T15:44:40.287Z,16.17
2019-03-23T15:49:36.357Z,17.73
2019-03-23T15:54:33.932Z,22.33
2019-03-23T15:59:32.494Z,26.10
2019-03-23T16:04:34.488Z,27.80
2019-03-23T16:09:36.613Z,23.40
2019-03-23T16:14:49.137Z,23.73
2019-03-23T16:19:46.899Z,24.70
2019-03-23T16:24:43.725Z,27.40
2019-03-23T16:29:39.839Z,27.40
2019-03-23T16:34:40.133Z,31.60
2019-03-23T16:39:41.653Z,29.57
2019-03-23T16:44:38.358Z,30.13
2019-03-23T16:49:36.136Z,42.60
2019-03-23T16:54:34.625Z,40.50
2019-03-23T16:59:32.808Z,47.37
2019-03-23T17:04:31.764Z,61.00
2019-03-23T17:09:29.125Z,81.77
2019-03-23T17:14:24.411Z,68.80
2019-03-23T17:19:23.881Z,60.17
2019-03-23T17:24:22.061Z,59.50
2019-03-23T17:29:19.589Z,58.33
2019-03-23T17:34:20.326Z,62.03
2019-03-23T17:39:20.939Z,59.73
2019-03-23T17:44:22.755Z,61.93
2019-03-23T17:49:24.240Z,57.23
2019-03-23T17:54:25.987Z,57.63
2019-03-23T17:59:24.793Z,58.40
2019-03-23T18:04:20.981Z,55.20
2019-03-23T18:09:17.922Z,54.40
2019-03-23T18:14:15.237Z,55.00
2019-03-23T18:19:12.008Z,51.07
2019-03-23T18:24:07.869Z,54.20
2019-03-23T18:29:04.537Z,55.13
2019-03-23T18:34:03.436Z,51.97
2019-03-23T18:38:58.139Z,55.70
2019-03-23T18:43:56.404Z,52.17
2019-03-23T18:48:57.156Z,96.43
2019-03-23T18:53:53.254Z,49.20
2019-03-23T18:58:50.214Z,45.90
2019-03-23T19:03:46.504Z,47.07
2019-03-23T19:08:46.558Z,48.90
2019-03-23T19:13:47.609Z,51.93
2019-03-23T19:18:44.882Z,49.83
2019-03-23T19:23:41.107Z,46.63
2019-03-23T19:28:38.633Z,47.67
2019-03-23T19:33:43.642Z,80.27
2019-03-23T19:38:39.864Z,55.97
2019-03-23T19:43:47.989Z,50.87
2019-03-23T19:48:39.888Z,47.60
2019-03-23T19:53:40.633Z,77.53
2019-03-23T19:58:37.228Z,44.37
2019-03-23T20:03:35.601Z,42.13
2019-03-23T20:08:33.015Z,45.27
2019-03-23T20:13:34.618Z,44.50
2019-03-23T20:18:39.691Z,49.17
2019-03-23T20:23:35.079Z,43.97
2019-03-23T20:28:30.075Z,48.07
2019-03-23T20:33:28.693Z,51.47
2019-03-23T20:38:28.394Z,52.43
2019-03-23T20:43:25.139Z,51.60
2019-03-23T20:48:20.909Z,49.77
2019-03-23T20:53:18.597Z,48.30
2019-03-23T20:58:14.407Z,52.37
2019-03-23T21:03:13.307Z,48.47
2019-03-23T21:08:11.794Z,48.60
2019-03-23T21:13:07.172Z,52.97
2019-03-23T21:18:06.806Z,53.57
2019-03-23T21:23:03.826Z,54.57
2019-03-23T21:28:00.843Z,53.10
2019-03-23T21:32:59.741Z,59.07
2019-03-23T21:37:55.788Z,55.63
2019-03-23T21:42:58.655Z,57.87
2019-03-23T21:47:55.208Z,55.43
2019-03-23T21:52:53.117Z,51.03
2019-03-23T21:57:57.035Z,49.67
2019-03-23T22:02:58.341Z,47.63
2019-03-23T22:07:55.933Z,53.53
2019-03-23T22:12:55.138Z,50.77
2019-03-23T22:17:50.395Z,49.97
2019-03-23T22:23:12.981Z,49.63
2019-03-23T22:28:08.902Z,52.13
2019-03-23T22:33:04.884Z,55.50
2019-03-23T22:37:59.977Z,55.57
2019-03-23T22:42:58.093Z,51.07
2019-03-23T22:47:54.863Z,52.20
2019-03-23T22:52:50.854Z,57.77
2019-03-23T22:57:50.911Z,54.23
2019-03-23T23:02:48.414Z,52.93
2019-03-23T23:07:51.656Z,50.50
2019-03-23T23:12:48.528Z,52.47
2019-03-23T23:17:56.710Z,51.30
2019-03-23T23:22:47.574Z,53.13
2019-03-23T23:27:44.222Z,51.83
2019-03-23T23:32:39.467Z,53.90
2019-03-23T23:37:36.062Z,54.03
2019-03-23T23:42:34.122Z,54.13
2019-03-23T23:47:29.366Z,55.93
2019-03-23T23:52:26.126Z,53.83
2019-03-23T23:57:22.524Z,53.43
